»·PEaware :: CFS452 KPDX-KBFI

CFS452 :: KPDX-KBFI

FLIGHT INFORMATION

Flight Status: Arrived
Operator: Unknown
More flights by this operator :: More flights under this callsign
Pilot: Anonymous 5456 (5456)
Aircraft: CESSNA 208 CARAVAN
(C208)
More flights by this aircraft type
Origin: KPDX Portland Intl
United States
Destination: KBFI Boeing Field/King Co Intl
United States
More flights between these airports :: More routes between these airports
Route: +PTLD1 BTG V495 SEA
File this flight plan on PilotEdge
Remarks:
Altitude:
(Current/Filed)
11,000ft
Speed:
(Current/Filed)
120kts
Departed: 05-Dec-17 11:40 AM
Arrived: 05-Dec-17 12:39 PM
Distance/Time
Traveled:
116nm/0:59
Distance/Time
To Go:
Arrived

Flight Plot

Page will automatically refresh every two minutes.

Flight plan parsing failed; only flown route is shown


Map Options




Map Legend


Flown Route
Filed Route
Departure Airport
Arrival Airport
Navaid (VOR, NDB)
Fix

Horizontal Profiles

Position Reports

Time Latitude Longitude Heading Altitude Ground
Speed
05-Dec-17 11:29 45.580551 -122.612088 88 34ft 0kts
05-Dec-17 11:30 45.580551 -122.612088 88 34ft 0kts
05-Dec-17 11:31 45.580551 -122.612088 88 34ft 0kts
05-Dec-17 11:32 45.580551 -122.612088 88 34ft 0kts
05-Dec-17 11:33 45.580551 -122.612087 88 34ft 0kts
05-Dec-17 11:34 45.580551 -122.612088 88 34ft 0kts
05-Dec-17 11:35 45.580551 -122.612088 88 34ft 0kts
05-Dec-17 11:36 45.580551 -122.612088 88 34ft 0kts
05-Dec-17 11:37 45.580551 -122.612088 88 34ft 0kts
05-Dec-17 11:38 45.580551 -122.612088 88 34ft 0kts
05-Dec-17 11:39 45.580551 -122.612088 88 34ft 0kts
05-Dec-17 11:40 45.580551 -122.612087 88 34ft 0kts
05-Dec-17 11:41 45.581084 -122.611274 343 34ft 7kts
05-Dec-17 11:42 45.581615 -122.613990 223 34ft 12kts
05-Dec-17 11:43 45.581804 -122.615704 313 34ft 1kts
05-Dec-17 11:44 45.583223 -122.615683 44 34ft 30kts
05-Dec-17 11:45 45.597543 -122.590528 39 1060ft 82kts
05-Dec-17 11:46 45.609190 -122.567239 45 2358ft 76kts
05-Dec-17 11:47 45.622797 -122.546978 45 3617ft 74kts
05-Dec-17 11:48 45.638580 -122.528711 45 4820ft 78kts
05-Dec-17 11:49 45.661105 -122.533448 343 5906ft 104kts
05-Dec-17 11:50 45.686309 -122.551344 344 7040ft 107kts
05-Dec-17 11:51 45.712808 -122.568983 346 8206ft 107kts
05-Dec-17 11:52 45.739141 -122.585809 344 9324ft 102kts
05-Dec-17 11:53 45.763751 -122.588056 8 10354ft 87kts
05-Dec-17 11:54 45.788749 -122.584399 6 10976ft 111kts
05-Dec-17 11:55 45.824020 -122.578918 6 11012ft 141kts
05-Dec-17 11:56 45.863778 -122.572415 6 11015ft 148kts
05-Dec-17 11:57 45.903703 -122.565934 6 11014ft 144kts
05-Dec-17 11:58 45.942623 -122.559607 6 11014ft 143kts
05-Dec-17 11:59 45.981742 -122.553262 7 11031ft 143kts
05-Dec-17 12:00 46.020688 -122.546866 6 11033ft 143kts
05-Dec-17 12:01 46.060272 -122.540411 6 11032ft 143kts
05-Dec-17 12:02 46.099865 -122.533923 6 11032ft 143kts
05-Dec-17 12:03 46.134056 -122.528313 6 11037ft 144kts
05-Dec-17 12:04 46.171353 -122.522174 6 11036ft 144kts
05-Dec-17 12:05 46.211110 -122.515620 6 11036ft 144kts
05-Dec-17 12:06 46.250891 -122.509100 7 11036ft 144kts
05-Dec-17 12:07 46.290700 -122.502476 6 11036ft 144kts
05-Dec-17 12:08 46.330349 -122.495931 6 11036ft 144kts
05-Dec-17 12:09 46.369806 -122.489401 7 11035ft 144kts
05-Dec-17 12:10 46.409156 -122.482892 7 11035ft 144kts
05-Dec-17 12:11 46.448836 -122.476310 7 11035ft 144kts
05-Dec-17 12:12 46.488553 -122.469704 7 11035ft 144kts
05-Dec-17 12:13 46.528194 -122.463142 7 11035ft 144kts
05-Dec-17 12:14 46.567933 -122.456487 7 11034ft 144kts
05-Dec-17 12:15 46.606597 -122.450083 5 11036ft 144kts
05-Dec-17 12:16 46.644070 -122.443756 8 11056ft 144kts
05-Dec-17 12:17 46.681185 -122.437673 7 11056ft 145kts
05-Dec-17 12:18 46.718273 -122.431347 7 11053ft 146kts
05-Dec-17 12:19 46.758272 -122.424614 8 10216ft 175kts
05-Dec-17 12:20 46.799778 -122.417977 8 9057ft 167kts
05-Dec-17 12:21 46.837711 -122.411250 7 9008ft 157kts
05-Dec-17 12:22 46.874869 -122.405056 8 9005ft 153kts
05-Dec-17 12:23 46.901192 -122.400536 8 9005ft 151kts
05-Dec-17 12:24 46.942364 -122.393547 8 8980ft 153kts
05-Dec-17 12:25 46.976509 -122.387819 8 8978ft 153kts
05-Dec-17 12:26 47.002125 -122.364251 43 8979ft 152kts
05-Dec-17 12:27 47.031802 -122.320862 44 8979ft 152kts
05-Dec-17 12:28 47.059459 -122.280396 44 8802ft 158kts
05-Dec-17 12:29 47.086041 -122.242328 44 7804ft 179kts
05-Dec-17 12:30 47.112815 -122.204766 44 6933ft 183kts
05-Dec-17 12:31 47.153566 -122.148296 34 5425ft 177kts
05-Dec-17 12:32 47.183627 -122.141251 5 5013ft 154kts
05-Dec-17 12:33 47.221041 -122.136796 5 5019ft 152kts
05-Dec-17 12:34 47.258063 -122.132808 4 4515ft 152kts
05-Dec-17 12:35 47.291783 -122.129378 4 4012ft 128kts
05-Dec-17 12:36 47.320203 -122.126386 5 4018ft 125kts
05-Dec-17 12:37 47.349111 -122.123328 5 4018ft 126kts
05-Dec-17 12:38 47.381186 -122.123412 345 3286ft 146kts
05-Dec-17 12:39 47.409711 -122.141191 322 3230ft 137kts
05-Dec-17 12:40 47.431395 -122.171372 316 3245ft 146kts
05-Dec-17 12:41 47.453360 -122.205653 310 2877ft 148kts
05-Dec-17 12:42 47.471700 -122.242511 312 2009ft 149kts
05-Dec-17 12:43 47.495688 -122.274323 335 817ft 136kts
05-Dec-17 12:44 47.512666 -122.291196 158 20ft 12kts

Navigation Log

Ident Type
Flight plan parsing failed, navigation log unavailable